Time;durP1;ratioP1;P1;durP2;ratioP2;P2;SDS_P1;SDS_P2;PMS_P1;PMS_P2;Temp;Humidity;BMP_temperature;BMP_pressure;BME280_temperature;BME280_humidity;BME280_pressure;Samples;Min_cycle;Max_cycle;Signal;HPM_P1;HPM_P2
2023/12/18 00:00:17;;;;;;;19.08;10.57;;;;;;;;;;5075696;28;20458;-66
2023/12/18 00:02:42;;;;;;;21.88;11.55;;;;;;;;;;5075860;28;20024;-66
2023/12/18 00:05:09;;;;;;;18.25;10.48;;;;;;;;;;5075244;28;20051;-67
2023/12/18 00:07:34;;;;;;;18.10;10.60;;;;;;;;;;5075338;28;20032;-67
2023/12/18 00:10:00;;;;;;;16.98;10.43;;;;;;;;;;5075893;28;20046;-68
2023/12/18 00:12:25;;;;;;;15.27;9.05;;;;;;;;;;5075000;28;20036;-69
2023/12/18 00:14:51;;;;;;;12.82;8.57;;;;;;;;;;5075379;28;20032;-67
2023/12/18 00:17:16;;;;;;;13.68;8.75;;;;;;;;;;5057770;28;20119;-66
2023/12/18 00:19:42;;;;;;;16.20;9.23;;;;;;;;;;5075663;28;20086;-67
2023/12/18 00:22:07;;;;;;;15.65;9.95;;;;;;;;;;5075642;28;20025;-66
2023/12/18 00:24:33;;;;;;;16.60;9.65;;;;;;;;;;5075242;28;20040;-66
2023/12/18 00:26:58;;;;;;;13.80;8.63;;;;;;;;;;5074807;28;20044;-65
2023/12/18 00:29:23;;;;;;;14.63;8.75;;;;;;;;;;5075541;28;20079;-65
2023/12/18 00:31:48;;;;;;;14.38;9.77;;;;;;;;;;5074928;28;20488;-66
2023/12/18 00:34:14;;;;;;;14.05;9.75;;;;;;;;;;5074880;28;20056;-65
2023/12/18 00:36:40;;;;;;;19.63;11.30;;;;;;;;;;5057396;28;20020;-66
2023/12/18 00:39:05;;;;;;;19.98;11.32;;;;;;;;;;5057834;28;20374;-65
2023/12/18 00:41:31;;;;;;;25.00;12.50;;;;;;;;;;5074976;28;20020;-66
2023/12/18 00:43:57;;;;;;;18.95;11.25;;;;;;;;;;5056646;28;20406;-66
2023/12/18 00:46:22;;;;;;;17.42;10.68;;;;;;;;;;5074436;28;20025;-66
2023/12/18 00:48:47;;;;;;;16.20;10.85;;;;;;;;;;5075222;28;20032;-66
2023/12/18 00:51:14;;;;;;;15.13;10.02;;;;;;;;;;5074578;28;20091;-66
2023/12/18 00:53:39;;;;;;;15.80;9.82;;;;;;;;;;5075040;28;20111;-67
2023/12/18 00:56:04;;;;;;;17.48;10.63;;;;;;;;;;5074351;28;20120;-66
2023/12/18 00:58:30;;;;;;;14.45;9.90;;;;;;;;;;5075072;28;20036;-66
2023/12/18 01:00:55;;;;;;;12.55;8.55;;;;;;;;;;5074620;28;20585;-66
2023/12/18 01:03:22;;;;;;;19.77;11.20;;;;;;;;;;5056157;28;20474;-65
2023/12/18 01:05:47;;;;;;;28.80;14.80;;;;;;;;;;5056045;28;20049;-66
2023/12/18 01:08:12;;;;;;;19.88;12.32;;;;;;;;;;5074001;28;20024;-65
2023/12/18 01:10:38;;;;;;;16.70;10.25;;;;;;;;;;5074233;28;20032;-65
2023/12/18 01:13:03;;;;;;;62.72;26.38;;;;;;;;;;5073921;28;20475;-65
2023/12/18 01:15:29;;;;;;;69.30;30.45;;;;;;;;;;5074151;28;20040;-65
2023/12/18 01:17:54;;;;;;;31.75;16.25;;;;;;;;;;5074170;28;20025;-66
2023/12/18 01:20:19;;;;;;;43.42;20.38;;;;;;;;;;5074341;28;20029;-65
2023/12/18 01:22:45;;;;;;;25.88;14.55;;;;;;;;;;5056469;28;20020;-66
2023/12/18 01:25:10;;;;;;;22.30;12.65;;;;;;;;;;5073731;28;20504;-66
2023/12/18 01:27:36;;;;;;;20.65;11.77;;;;;;;;;;5073432;28;20028;-66
2023/12/18 01:30:02;;;;;;;16.20;11.18;;;;;;;;;;5074152;28;20033;-66
2023/12/18 01:32:27;;;;;;;14.98;10.63;;;;;;;;;;5073404;28;20024;-68
2023/12/18 01:34:52;;;;;;;12.93;9.48;;;;;;;;;;5073933;28;20039;-69
2023/12/18 01:37:18;;;;;;;13.25;9.35;;;;;;;;;;5074162;28;20421;-67
2023/12/18 01:39:43;;;;;;;14.98;9.43;;;;;;;;;;5074454;28;20043;-67
2023/12/18 01:42:09;;;;;;;11.43;8.40;;;;;;;;;;5074467;28;20432;-69
2023/12/18 01:44:34;;;;;;;11.13;8.02;;;;;;;;;;5073540;28;20016;-69
2023/12/18 01:46:59;;;;;;;11.73;8.02;;;;;;;;;;5055584;28;20025;-69
2023/12/18 01:49:25;;;;;;;13.02;8.05;;;;;;;;;;5073654;28;20035;-68
2023/12/18 01:51:50;;;;;;;9.80;8.25;;;;;;;;;;5055978;28;20222;-68
2023/12/18 01:54:16;;;;;;;13.20;8.60;;;;;;;;;;5074220;28;20165;-68
2023/12/18 01:56:41;;;;;;;11.77;8.55;;;;;;;;;;5073925;28;20032;-68
2023/12/18 01:59:09;;;;;;;13.73;8.90;;;;;;;;;;5074207;28;20409;-68
2023/12/18 02:01:35;;;;;;;11.63;8.82;;;;;;;;;;5039005;28;20020;-68
2023/12/18 02:04:00;;;;;;;14.32;9.27;;;;;;;;;;5055425;28;20037;-68
2023/12/18 02:06:26;;;;;;;12.10;8.95;;;;;;;;;;5072755;28;20040;-67
2023/12/18 02:08:53;;;;;;;11.68;8.32;;;;;;;;;;5074025;28;20111;-67
2023/12/18 02:11:19;;;;;;;10.90;9.52;;;;;;;;;;5073999;28;20064;-67
2023/12/18 02:13:44;;;;;;;11.50;9.77;;;;;;;;;;5073292;28;20039;-67
2023/12/18 02:16:10;;;;;;;14.20;10.55;;;;;;;;;;5073450;28;20031;-67
2023/12/18 02:18:41;;;;;;;9.45;8.10;;;;;;;;;;5073641;28;20078;-66
2023/12/18 02:21:07;;;;;;;12.25;9.07;;;;;;;;;;5073456;28;20063;-66
2023/12/18 02:23:32;;;;;;;10.27;8.15;;;;;;;;;;5074229;28;20064;-66
2023/12/18 02:25:57;;;;;;;12.88;8.23;;;;;;;;;;5072675;28;20036;-67
2023/12/18 02:28:24;;;;;;;10.60;8.13;;;;;;;;;;5073551;28;20111;-67
2023/12/18 02:30:49;;;;;;;11.75;8.05;;;;;;;;;;5055583;28;20029;-66
2023/12/18 02:33:15;;;;;;;10.00;8.32;;;;;;;;;;5073117;28;20423;-68
2023/12/18 02:35:40;;;;;;;11.40;8.23;;;;;;;;;;5074789;28;20033;-67
2023/12/18 02:38:05;;;;;;;12.73;7.53;;;;;;;;;;5077626;28;20017;-67
2023/12/18 02:40:31;;;;;;;8.77;7.25;;;;;;;;;;5077460;28;20036;-67
2023/12/18 02:42:56;;;;;;;10.00;7.65;;;;;;;;;;5059701;28;20040;-67
2023/12/18 02:45:21;;;;;;;10.40;8.23;;;;;;;;;;5059354;28;20077;-66
2023/12/18 02:47:47;;;;;;;8.27;7.40;;;;;;;;;;5042222;28;20020;-67
2023/12/18 02:50:12;;;;;;;11.32;7.78;;;;;;;;;;5077082;28;20115;-66
2023/12/18 02:52:39;;;;;;;9.43;7.93;;;;;;;;;;5059008;28;20044;-66
2023/12/18 02:55:04;;;;;;;9.25;6.78;;;;;;;;;;5076953;28;20028;-67
2023/12/18 02:57:30;;;;;;;10.48;7.45;;;;;;;;;;5076926;28;20020;-67
2023/12/18 02:59:55;;;;;;;11.45;8.13;;;;;;;;;;5077422;28;20104;-68
2023/12/18 03:02:20;;;;;;;10.07;7.88;;;;;;;;;;5058938;28;20085;-67
2023/12/18 03:04:46;;;;;;;11.80;8.43;;;;;;;;;;5076641;28;20037;-66
2023/12/18 03:07:11;;;;;;;9.70;7.45;;;;;;;;;;5076415;28;20029;-66
2023/12/18 03:09:38;;;;;;;10.98;7.82;;;;;;;;;;5077102;28;20025;-65
2023/12/18 03:12:03;;;;;;;9.13;7.38;;;;;;;;;;5076703;28;20020;-66
2023/12/18 03:14:29;;;;;;;10.88;7.88;;;;;;;;;;5076320;28;20154;-66
2023/12/18 03:16:54;;;;;;;9.35;7.78;;;;;;;;;;5041739;28;20478;-66
2023/12/18 03:19:20;;;;;;;8.65;7.60;;;;;;;;;;5058464;28;20043;-66
2023/12/18 03:21:45;;;;;;;12.07;8.73;;;;;;;;;;5076397;28;20029;-66
2023/12/18 03:24:11;;;;;;;12.70;8.15;;;;;;;;;;5058197;28;20048;-67
2023/12/18 03:26:36;;;;;;;11.00;7.80;;;;;;;;;;5076063;28;20028;-67
2023/12/18 03:29:02;;;;;;;8.57;7.45;;;;;;;;;;5076527;28;20082;-66
2023/12/18 03:31:27;;;;;;;10.68;8.23;;;;;;;;;;5076759;28;20036;-67
2023/12/18 03:33:52;;;;;;;10.95;7.93;;;;;;;;;;5058165;28;20021;-66
2023/12/18 03:36:18;;;;;;;11.00;8.02;;;;;;;;;;5076270;28;20507;-67
2023/12/18 03:38:43;;;;;;;10.25;7.88;;;;;;;;;;5058192;28;20032;-67
2023/12/18 03:41:08;;;;;;;10.75;7.80;;;;;;;;;;5076460;28;20037;-67
2023/12/18 03:43:34;;;;;;;12.05;7.97;;;;;;;;;;5076139;28;20107;-68
2023/12/18 03:45:59;;;;;;;13.15;7.57;;;;;;;;;;5075554;28;20047;-67
2023/12/18 03:48:25;;;;;;;11.27;8.20;;;;;;;;;;5075362;28;20024;-65
2023/12/18 03:50:50;;;;;;;15.68;9.57;;;;;;;;;;5058967;22;20072;-67
2023/12/18 03:53:15;;;;;;;12.07;8.52;;;;;;;;;;5032735;28;20494;-67
2023/12/18 03:55:41;;;;;;;9.52;7.97;;;;;;;;;;5018170;28;20029;-67
2023/12/18 03:58:06;;;;;;;10.20;8.05;;;;;;;;;;5035741;28;20097;-66
2023/12/18 04:00:33;;;;;;;10.02;7.57;;;;;;;;;;5018097;28;20106;-66
2023/12/18 04:02:58;;;;;;;11.52;7.90;;;;;;;;;;5036070;28;20037;-65
2023/12/18 04:05:24;;;;;;;14.15;9.93;;;;;;;;;;5035699;28;20021;-66
2023/12/18 04:07:50;;;;;;;10.60;7.25;;;;;;;;;;5047724;22;20415;-66
2023/12/18 04:10:15;;;;;;;11.40;7.55;;;;;;;;;;5047362;22;20520;-66
2023/12/18 04:12:41;;;;;;;11.82;7.57;;;;;;;;;;5035490;28;20028;-66
2023/12/18 04:15:07;;;;;;;10.85;6.95;;;;;;;;;;5035181;28;20464;-67
2023/12/18 04:17:34;;;;;;;13.45;8.75;;;;;;;;;;5035780;28;20101;-64
2023/12/18 04:19:59;;;;;;;16.20;7.90;;;;;;;;;;5021669;28;20112;-66
2023/12/18 04:22:25;;;;;;;15.15;8.40;;;;;;;;;;5034207;28;20108;-66
2023/12/18 04:24:50;;;;;;;13.20;8.75;;;;;;;;;;5035673;28;20032;-70
2023/12/18 04:27:16;;;;;;;16.77;9.02;;;;;;;;;;5034516;28;20109;-69
2023/12/18 04:29:42;;;;;;;14.23;8.32;;;;;;;;;;5035165;28;20037;-68
2023/12/18 04:32:07;;;;;;;12.18;8.40;;;;;;;;;;5017818;28;20030;-69
2023/12/18 04:34:32;;;;;;;12.95;7.95;;;;;;;;;;5034960;28;20116;-69
2023/12/18 04:36:58;;;;;;;12.93;8.27;;;;;;;;;;5035098;28;20034;-69
2023/12/18 04:39:23;;;;;;;12.23;6.85;;;;;;;;;;5035109;28;20112;-69
2023/12/18 04:41:49;;;;;;;7.93;5.90;;;;;;;;;;5035191;28;20021;-69
2023/12/18 04:44:14;;;;;;;11.57;7.35;;;;;;;;;;5035103;28;20032;-68
2023/12/18 04:46:40;;;;;;;11.40;7.90;;;;;;;;;;5016301;28;20492;-67
2023/12/18 04:49:06;;;;;;;12.05;8.52;;;;;;;;;;5034409;28;20038;-67
2023/12/18 04:51:31;;;;;;;14.55;8.63;;;;;;;;;;5034481;28;20029;-68
2023/12/18 04:53:57;;;;;;;12.40;7.97;;;;;;;;;;5034115;28;20476;-67
2023/12/18 04:56:23;;;;;;;12.80;9.10;;;;;;;;;;5033667;28;20118;-68
2023/12/18 04:58:49;;;;;;;11.57;8.68;;;;;;;;;;5032424;28;20026;-69
2023/12/18 05:01:15;;;;;;;13.68;9.45;;;;;;;;;;5032930;28;20486;-68
2023/12/18 05:03:41;;;;;;;10.68;8.15;;;;;;;;;;5032269;28;20053;-69
2023/12/18 05:06:25;;;;;;;13.10;9.57;;;;;;;;;;5032709;28;20107;-67
2023/12/18 05:08:51;;;;;;;13.05;9.07;;;;;;;;;;5032260;28;20021;-68
2023/12/18 05:11:17;;;;;;;12.13;8.32;;;;;;;;;;5031501;28;20041;-68
2023/12/18 05:13:42;;;;;;;13.27;9.05;;;;;;;;;;5031149;28;20403;-67
2023/12/18 05:16:08;;;;;;;13.35;9.80;;;;;;;;;;5033168;28;20075;-66
2023/12/18 05:18:34;;;;;;;16.25;10.30;;;;;;;;;;5034965;28;20068;-67
2023/12/18 05:20:59;;;;;;;13.95;10.43;;;;;;;;;;5033472;28;20036;-66
2023/12/18 05:23:25;;;;;;;14.00;9.88;;;;;;;;;;5034330;28;20108;-68
2023/12/18 05:25:50;;;;;;;12.40;9.88;;;;;;;;;;5034040;28;20056;-68
2023/12/18 05:28:18;;;;;;;13.77;10.27;;;;;;;;;;5015895;28;20373;-67
2023/12/18 05:30:43;;;;;;;12.15;8.80;;;;;;;;;;5034234;28;20029;-65
2023/12/18 05:33:10;;;;;;;11.68;9.13;;;;;;;;;;5034503;28;20544;-69
2023/12/18 05:35:35;;;;;;;12.15;8.48;;;;;;;;;;5033737;28;20040;-69
2023/12/18 05:38:01;;;;;;;11.88;9.18;;;;;;;;;;5033913;28;20041;-70
2023/12/18 05:40:27;;;;;;;10.60;8.57;;;;;;;;;;5033677;28;20022;-69
2023/12/18 05:42:52;;;;;;;13.85;8.95;;;;;;;;;;5033921;28;20032;-69
2023/12/18 05:45:17;;;;;;;13.43;9.40;;;;;;;;;;5033707;28;20118;-69
2023/12/18 05:47:43;;;;;;;11.32;8.93;;;;;;;;;;5033307;28;20196;-69
2023/12/18 05:50:08;;;;;;;16.15;12.32;;;;;;;;;;5033189;28;20025;-69
2023/12/18 05:52:35;;;;;;;22.17;16.63;;;;;;;;;;5032577;28;20557;-67
2023/12/18 05:55:00;;;;;;;41.72;25.27;;;;;;;;;;5032224;28;20037;-68
2023/12/18 05:57:25;;;;;;;36.78;24.88;;;;;;;;;;5032886;28;20048;-72
2023/12/18 05:59:51;;;;;;;33.10;23.90;;;;;;;;;;5033595;28;20044;-71
2023/12/18 06:02:16;;;;;;;33.30;21.98;;;;;;;;;;5034282;28;20068;-71
2023/12/18 06:04:43;;;;;;;37.00;22.48;;;;;;;;;;5033509;28;20029;-70
2023/12/18 06:07:12;;;;;;;47.20;29.40;;;;;;;;;;5033130;28;20026;-71
2023/12/18 06:09:37;;;;;;;46.15;28.70;;;;;;;;;;5032783;28;20030;-72
2023/12/18 06:12:02;;;;;;;42.53;25.50;;;;;;;;;;5032617;28;20400;-69
2023/12/18 06:14:28;;;;;;;44.08;23.92;;;;;;;;;;5032675;28;20044;-62
2023/12/18 06:16:53;;;;;;;40.03;23.38;;;;;;;;;;5032750;28;20402;-70
2023/12/18 06:19:18;;;;;;;39.53;24.00;;;;;;;;;;5033221;28;20032;-70
2023/12/18 06:21:44;;;;;;;38.88;23.25;;;;;;;;;;5033200;28;20443;-70
2023/12/18 06:24:09;;;;;;;38.67;22.20;;;;;;;;;;5015363;28;20013;-70
2023/12/18 06:26:35;;;;;;;37.42;22.17;;;;;;;;;;5033073;28;20037;-70
2023/12/18 06:29:01;;;;;;;32.03;20.33;;;;;;;;;;5032780;28;20025;-69
2023/12/18 06:31:26;;;;;;;29.00;19.05;;;;;;;;;;5045315;22;20148;-76
2023/12/18 06:33:52;;;;;;;31.73;19.48;;;;;;;;;;5013426;28;20429;-75
2023/12/18 06:36:20;;;;;;;29.80;18.85;;;;;;;;;;5012867;28;20492;-70
2023/12/18 06:38:46;;;;;;;34.45;22.10;;;;;;;;;;5013193;28;20080;-69
2023/12/18 06:44:04;;;;;;;33.25;20.25;;;;;;;;;;5050186;22;20419;-76
2023/12/18 06:46:29;;;;;;;31.70;19.60;;;;;;;;;;5030920;28;20057;-76
2023/12/18 06:48:55;;;;;;;35.03;22.05;;;;;;;;;;5032457;28;20052;-76
2023/12/18 06:51:20;;;;;;;34.78;20.83;;;;;;;;;;5048922;28;20029;-76
2023/12/18 06:53:46;;;;;;;31.95;18.50;;;;;;;;;;5032968;28;20037;-76
2023/12/18 06:56:12;;;;;;;34.28;21.20;;;;;;;;;;5031441;28;20030;-76
2023/12/18 06:58:37;;;;;;;29.70;18.73;;;;;;;;;;5048210;28;20018;-76
2023/12/18 07:01:03;;;;;;;26.40;17.75;;;;;;;;;;5031372;28;20494;-76
2023/12/18 07:03:31;;;;;;;49.85;29.33;;;;;;;;;;5033167;28;20021;-76
2023/12/18 07:05:56;;;;;;;56.30;32.47;;;;;;;;;;5032856;28;20055;-76
2023/12/18 07:08:22;;;;;;;46.20;27.73;;;;;;;;;;5032411;28;20014;-76
2023/12/18 07:10:49;;;;;;;45.08;26.92;;;;;;;;;;5032504;28;20032;-76
2023/12/18 07:13:15;;;;;;;47.40;27.77;;;;;;;;;;5032159;28;20013;-76
2023/12/18 07:15:40;;;;;;;36.33;22.10;;;;;;;;;;5030586;28;20356;-76
2023/12/18 07:18:07;;;;;;;34.33;21.50;;;;;;;;;;5029230;28;20033;-76
2023/12/18 07:20:32;;;;;;;39.55;24.23;;;;;;;;;;5031005;28;20026;-76
2023/12/18 07:22:58;;;;;;;29.73;20.30;;;;;;;;;;5034633;28;20112;-76
2023/12/18 07:25:23;;;;;;;30.52;19.80;;;;;;;;;;5034565;28;20029;-76
2023/12/18 07:27:49;;;;;;;33.95;21.60;;;;;;;;;;5034826;28;20101;-76
2023/12/18 07:30:14;;;;;;;36.38;22.88;;;;;;;;;;5035947;28;20369;-76
2023/12/18 07:32:40;;;;;;;36.90;24.23;;;;;;;;;;5036275;28;20083;-76
2023/12/18 07:35:06;;;;;;;30.80;19.60;;;;;;;;;;5034813;28;20086;-76
2023/12/18 07:37:31;;;;;;;31.80;19.90;;;;;;;;;;5034912;28;20025;-76
2023/12/18 07:39:57;;;;;;;28.92;19.80;;;;;;;;;;5035899;28;20038;-76
2023/12/18 07:42:23;;;;;;;31.73;18.67;;;;;;;;;;5035999;28;20063;-76
2023/12/18 07:44:48;;;;;;;30.23;19.25;;;;;;;;;;5036012;28;20045;-76
2023/12/18 07:47:14;;;;;;;29.27;18.70;;;;;;;;;;5035981;28;20032;-76
2023/12/18 07:49:40;;;;;;;32.17;19.17;;;;;;;;;;5035246;28;20025;-76
2023/12/18 07:52:07;;;;;;;42.35;19.65;;;;;;;;;;5035935;28;20467;-77
2023/12/18 07:54:32;;;;;;;33.05;18.17;;;;;;;;;;5035788;28;20045;-76
2023/12/18 07:56:58;;;;;;;30.75;17.55;;;;;;;;;;5035463;28;20018;-76
2023/12/18 07:59:23;;;;;;;29.70;17.98;;;;;;;;;;5035840;28;20105;-77
2023/12/18 08:01:49;;;;;;;32.67;20.15;;;;;;;;;;5035817;28;20029;-76
2023/12/18 08:04:14;;;;;;;42.28;20.60;;;;;;;;;;5036208;28;20040;-76
2023/12/18 08:06:40;;;;;;;51.80;24.05;;;;;;;;;;5035570;28;20070;-76
2023/12/18 08:09:05;;;;;;;48.28;24.42;;;;;;;;;;5034527;28;20049;-73
2023/12/18 08:11:31;;;;;;;46.45;21.65;;;;;;;;;;5033836;28;20037;-76
2023/12/18 08:13:56;;;;;;;52.50;23.83;;;;;;;;;;5035829;28;20487;-76
2023/12/18 08:16:23;;;;;;;35.88;17.45;;;;;;;;;;5034690;28;20033;-76
2023/12/18 08:18:48;;;;;;;56.10;24.33;;;;;;;;;;5034239;28;20025;-76
2023/12/18 08:21:14;;;;;;;45.03;22.20;;;;;;;;;;5034070;28;20479;-76
2023/12/18 08:23:43;;;;;;;31.10;17.52;;;;;;;;;;5034106;28;20163;-76
2023/12/18 08:26:09;;;;;;;17.38;12.07;;;;;;;;;;5035439;28;20052;-70
2023/12/18 08:28:35;;;;;;;17.20;10.77;;;;;;;;;;5034581;28;20395;-71
2023/12/18 08:31:00;;;;;;;16.45;10.70;;;;;;;;;;5034397;28;20033;-70
2023/12/18 08:33:26;;;;;;;13.30;8.00;;;;;;;;;;5034974;28;20101;-69
2023/12/18 08:35:51;;;;;;;10.40;7.28;;;;;;;;;;5033010;28;20438;-70
2023/12/18 08:38:16;;;;;;;10.10;6.43;;;;;;;;;;5033418;28;20017;-70
2023/12/18 08:40:43;;;;;;;6.28;5.65;;;;;;;;;;5034522;28;20055;-70
2023/12/18 08:43:09;;;;;;;8.02;5.80;;;;;;;;;;5034737;28;20041;-70
2023/12/18 08:45:35;;;;;;;8.88;5.63;;;;;;;;;;5035506;28;20032;-70
2023/12/18 08:48:01;;;;;;;7.63;5.28;;;;;;;;;;5033302;28;20426;-70
2023/12/18 08:50:26;;;;;;;9.00;5.90;;;;;;;;;;5049294;28;20021;-71
2023/12/18 08:52:52;;;;;;;6.88;5.30;;;;;;;;;;5033239;28;20093;-71
2023/12/18 08:55:19;;;;;;;7.30;4.70;;;;;;;;;;5034257;28;20037;-71
2023/12/18 08:57:49;;;;;;;6.88;4.45;;;;;;;;;;5049964;28;20029;-71
2023/12/18 09:00:14;;;;;;;;;;;;;;;;;;5034755;28;20048;-71
2023/12/18 09:03:05;;;;;;;5.30;3.83;;;;;;;;;;5039497;22;19917;-71
2023/12/18 09:05:36;;;;;;;6.22;4.35;;;;;;;;;;5057235;22;20303;-71
2023/12/18 09:08:05;;;;;;;6.38;4.60;;;;;;;;;;5036185;28;20025;-71
2023/12/18 09:10:32;;;;;;;6.53;4.35;;;;;;;;;;5053687;28;20032;-71
2023/12/18 09:12:57;;;;;;;4.85;4.35;;;;;;;;;;5054505;28;20422;-71
2023/12/18 09:15:23;;;;;;;7.93;4.45;;;;;;;;;;5053176;28;20043;-71
2023/12/18 09:17:48;;;;;;;7.70;4.32;;;;;;;;;;5052816;28;20017;-71
2023/12/18 09:20:14;;;;;;;6.78;4.28;;;;;;;;;;5052450;28;20017;-71
2023/12/18 09:22:39;;;;;;;4.47;4.03;;;;;;;;;;5035274;28;20367;-71
2023/12/18 09:25:05;;;;;;;6.35;4.10;;;;;;;;;;5052195;28;20364;-70
2023/12/18 09:27:31;;;;;;;7.00;4.63;;;;;;;;;;5052000;28;20040;-71
2023/12/18 09:29:57;;;;;;;4.55;3.53;;;;;;;;;;5051815;28;20029;-71
2023/12/18 09:32:22;;;;;;;5.07;3.92;;;;;;;;;;5033673;28;20128;-71
2023/12/18 09:34:48;;;;;;;4.97;3.63;;;;;;;;;;5052127;28;20061;-71
2023/12/18 09:37:13;;;;;;;5.82;3.55;;;;;;;;;;5051478;28;20096;-70
2023/12/18 09:39:41;;;;;;;5.43;3.45;;;;;;;;;;5051423;28;20029;-70
2023/12/18 09:42:09;;;;;;;5.80;4.30;;;;;;;;;;5051366;28;20025;-71
2023/12/18 09:44:35;;;;;;;5.05;3.58;;;;;;;;;;5051266;28;20441;-71
2023/12/18 09:47:01;;;;;;;4.85;3.92;;;;;;;;;;5053269;28;20029;-71
2023/12/18 09:49:26;;;;;;;3.47;3.13;;;;;;;;;;5053009;28;20112;-71
2023/12/18 09:52:11;;;;;;;5.28;3.67;;;;;;;;;;5035068;28;20029;-71
2023/12/18 09:54:44;;;;;;;4.93;3.75;;;;;;;;;;5057873;22;20333;-70
2023/12/18 09:57:12;;;;;;;5.63;3.92;;;;;;;;;;4994044;28;20057;-71
2023/12/18 09:59:37;;;;;;;5.03;3.08;;;;;;;;;;5032856;22;20096;-71
2023/12/18 10:02:03;;;;;;;5.18;3.83;;;;;;;;;;5028663;28;20057;-71
2023/12/18 10:04:28;;;;;;;5.75;3.90;;;;;;;;;;5013711;28;20030;-71
2023/12/18 10:06:54;;;;;;;4.28;3.70;;;;;;;;;;5013860;28;20056;-71
2023/12/18 10:09:19;;;;;;;3.75;3.17;;;;;;;;;;5028334;28;20030;-71
2023/12/18 10:11:48;;;;;;;4.18;3.60;;;;;;;;;;5013261;28;20547;-71
2023/12/18 10:14:14;;;;;;;4.85;3.83;;;;;;;;;;5012414;28;20064;-71
2023/12/18 10:16:40;;;;;;;4.50;3.33;;;;;;;;;;5012924;28;20026;-71
2023/12/18 10:19:06;;;;;;;3.63;3.20;;;;;;;;;;5012045;28;20079;-71
2023/12/18 10:21:32;;;;;;;4.63;4.05;;;;;;;;;;5011971;28;20615;-71
2023/12/18 10:23:58;;;;;;;5.50;3.92;;;;;;;;;;5013321;28;20030;-71
2023/12/18 10:26:24;;;;;;;5.38;3.80;;;;;;;;;;5013556;28;20056;-70
2023/12/18 10:28:52;;;;;;;6.10;3.58;;;;;;;;;;5012953;28;20069;-71
2023/12/18 10:31:18;;;;;;;4.70;3.40;;;;;;;;;;5011447;28;20040;-71
2023/12/18 10:33:44;;;;;;;4.88;3.70;;;;;;;;;;5028211;28;20026;-71
2023/12/18 10:36:09;;;;;;;4.28;3.65;;;;;;;;;;5012805;28;20409;-71
2023/12/18 10:38:38;;;;;;;5.97;3.83;;;;;;;;;;5013147;28;20030;-70
2023/12/18 10:41:03;;;;;;;5.97;4.15;;;;;;;;;;5012747;28;20036;-70
2023/12/18 10:43:30;;;;;;;4.05;3.35;;;;;;;;;;5028179;28;20463;-71
2023/12/18 10:45:56;;;;;;;3.95;2.92;;;;;;;;;;5013375;28;20036;-71
2023/12/18 10:48:24;;;;;;;2.97;2.58;;;;;;;;;;5012885;28;20022;-71
2023/12/18 10:50:51;;;;;;;4.97;3.72;;;;;;;;;;5012298;28;20018;-70
2023/12/18 10:53:17;;;;;;;5.53;3.95;;;;;;;;;;5012963;28;20088;-70
2023/12/18 10:55:42;;;;;;;3.58;3.20;;;;;;;;;;5012718;28;20038;-70
2023/12/18 10:58:08;;;;;;;4.95;4.05;;;;;;;;;;5016256;28;20149;-71
2023/12/18 11:00:34;;;;;;;5.32;3.58;;;;;;;;;;5016481;28;20026;-70
2023/12/18 11:03:01;;;;;;;5.68;3.72;;;;;;;;;;5016415;28;20061;-71
2023/12/18 11:05:26;;;;;;;4.97;3.75;;;;;;;;;;5031912;28;20508;-70
2023/12/18 11:07:52;;;;;;;5.28;3.60;;;;;;;;;;5016952;28;20040;-71
2023/12/18 11:10:18;;;;;;;5.60;3.63;;;;;;;;;;5015275;28;20026;-70
2023/12/18 11:15:35;;;;;;;5.85;4.03;;;;;;;;;;4976199;28;20047;-71
2023/12/18 11:18:07;;;;;;;5.53;4.00;;;;;;;;;;4959650;28;20038;-71
2023/12/18 11:20:32;;;;;;;4.95;3.65;;;;;;;;;;4975806;28;20038;-71
2023/12/18 11:26:34;;;;;;;5.35;4.00;;;;;;;;;;4995367;28;20053;-70
2023/12/18 11:29:23;;;;;;;4.95;4.07;;;;;;;;;;4994690;28;20031;-69
2023/12/18 11:31:48;;;;;;;6.45;4.00;;;;;;;;;;4978795;28;20038;-69
2023/12/18 11:34:14;;;;;;;6.35;3.78;;;;;;;;;;4996645;28;20495;-70
2023/12/18 11:36:39;;;;;;;8.00;4.28;;;;;;;;;;4978823;28;20537;-70
2023/12/18 11:39:05;;;;;;;5.97;4.30;;;;;;;;;;4996420;28;20030;-70
2023/12/18 11:41:56;;;;;;;9.20;4.30;;;;;;;;;;4996039;28;20014;-70
2023/12/18 11:44:26;;;;;;;8.23;4.43;;;;;;;;;;4978382;28;20050;-71
2023/12/18 11:46:52;;;;;;;5.43;4.00;;;;;;;;;;4996699;28;20084;-70
2023/12/18 11:49:18;;;;;;;9.75;4.57;;;;;;;;;;4996193;28;20345;-70
2023/12/18 11:51:43;;;;;;;7.97;4.75;;;;;;;;;;4995813;28;20057;-69
2023/12/18 11:54:13;;;;;;;7.97;4.55;;;;;;;;;;4994863;28;20473;-70
2023/12/18 11:56:39;;;;;;;9.40;5.28;;;;;;;;;;4978513;28;20031;-72
2023/12/18 11:59:06;;;;;;;6.65;4.40;;;;;;;;;;4978741;28;20034;-69
2023/12/18 12:01:31;;;;;;;6.22;4.20;;;;;;;;;;4995736;28;20539;-70
2023/12/18 12:03:58;;;;;;;7.03;3.63;;;;;;;;;;4978289;28;20054;-69
2023/12/18 12:06:24;;;;;;;6.00;4.45;;;;;;;;;;4995888;28;20481;-70
2023/12/18 12:08:50;;;;;;;8.48;4.78;;;;;;;;;;4977725;28;20029;-71
2023/12/18 12:11:16;;;;;;;7.63;4.78;;;;;;;;;;4995735;28;20026;-70
2023/12/18 12:13:42;;;;;;;7.55;4.55;;;;;;;;;;4994990;28;20036;-71
2023/12/18 12:16:08;;;;;;;7.63;4.15;;;;;;;;;;4995816;28;20023;-71
2023/12/18 12:18:34;;;;;;;6.50;3.97;;;;;;;;;;4995228;28;20085;-70
2023/12/18 12:21:00;;;;;;;7.72;4.68;;;;;;;;;;4995357;28;20053;-70
2023/12/18 12:23:25;;;;;;;6.95;4.03;;;;;;;;;;4995378;28;20473;-70
2023/12/18 12:25:51;;;;;;;6.63;4.40;;;;;;;;;;4991466;28;20386;-71
2023/12/18 12:28:17;;;;;;;5.50;4.10;;;;;;;;;;5015555;28;20041;-70
2023/12/18 12:30:43;;;;;;;6.28;4.80;;;;;;;;;;5013614;28;20039;-71
2023/12/18 12:33:09;;;;;;;6.45;4.40;;;;;;;;;;5014614;28;20034;-70
2023/12/18 12:35:34;;;;;;;8.32;4.00;;;;;;;;;;4997589;28;20117;-71
2023/12/18 12:38:03;;;;;;;6.47;4.15;;;;;;;;;;5014811;28;20037;-70
2023/12/18 12:40:38;;;;;;;5.55;4.30;;;;;;;;;;5013578;28;20033;-70
2023/12/18 12:43:05;;;;;;;5.35;4.38;;;;;;;;;;5012878;28;20125;-71
2023/12/18 12:45:30;;;;;;;5.65;4.43;;;;;;;;;;5014308;28;20691;-71
2023/12/18 12:47:57;;;;;;;5.57;4.28;;;;;;;;;;5014651;28;20057;-71
2023/12/18 12:50:23;;;;;;;5.10;3.90;;;;;;;;;;5013601;28;20046;-70
2023/12/18 12:52:50;;;;;;;8.05;4.45;;;;;;;;;;5011094;28;20124;-71
2023/12/18 12:55:15;;;;;;;7.28;4.97;;;;;;;;;;5011500;28;20030;-71
2023/12/18 12:57:41;;;;;;;5.35;4.53;;;;;;;;;;4996575;28;20464;-71
2023/12/18 13:00:08;;;;;;;6.60;4.80;;;;;;;;;;5014199;28;20420;-71
2023/12/18 13:02:34;;;;;;;5.28;4.28;;;;;;;;;;5014081;28;20398;-71
2023/12/18 13:05:00;;;;;;;8.45;4.65;;;;;;;;;;5014443;28;20033;-71
2023/12/18 13:07:25;;;;;;;7.30;5.22;;;;;;;;;;5014152;28;20464;-71
2023/12/18 13:09:51;;;;;;;8.80;4.35;;;;;;;;;;5014201;28;20495;-70
2023/12/18 13:12:17;;;;;;;8.30;5.53;;;;;;;;;;4996735;28;20396;-71
2023/12/18 13:14:43;;;;;;;6.57;5.22;;;;;;;;;;5013285;28;20452;-72
2023/12/18 13:17:09;;;;;;;3.35;2.72;;;;;;;;;;5014805;28;20030;-71
2023/12/18 13:19:36;;;;;;;4.72;3.30;;;;;;;;;;5013979;28;20088;-72
2023/12/18 13:22:02;;;;;;;7.47;4.38;;;;;;;;;;5014439;28;20461;-71
2023/12/18 13:24:29;;;;;;;4.53;3.85;;;;;;;;;;5014086;28;20041;-73
2023/12/18 13:26:54;;;;;;;8.80;5.03;;;;;;;;;;5014662;28;20096;-72
2023/12/18 13:29:20;;;;;;;6.32;4.53;;;;;;;;;;5013736;28;20472;-72
2023/12/18 13:31:45;;;;;;;6.38;5.43;;;;;;;;;;5014228;28;20033;-71
2023/12/18 13:34:13;;;;;;;7.40;4.90;;;;;;;;;;5013731;28;20022;-73
2023/12/18 13:36:39;;;;;;;8.25;5.28;;;;;;;;;;4996485;28;20026;-72
2023/12/18 13:39:05;;;;;;;7.85;5.13;;;;;;;;;;5013138;28;20472;-72
2023/12/18 13:41:31;;;;;;;6.30;4.80;;;;;;;;;;5014291;28;20030;-72
2023/12/18 13:43:57;;;;;;;8.65;5.22;;;;;;;;;;5014150;28;20033;-72
2023/12/18 13:46:22;;;;;;;6.68;5.07;;;;;;;;;;5014681;28;20042;-72
2023/12/18 13:48:48;;;;;;;8.40;5.35;;;;;;;;;;5014425;28;20068;-72
2023/12/18 13:51:14;;;;;;;8.55;5.53;;;;;;;;;;5013966;28;20539;-72
2023/12/18 13:53:39;;;;;;;6.07;4.43;;;;;;;;;;5013621;28;20164;-71
2023/12/18 13:56:05;;;;;;;8.15;5.50;;;;;;;;;;5014790;28;20033;-72
2023/12/18 13:58:30;;;;;;;8.60;5.32;;;;;;;;;;5013910;28;20456;-72
2023/12/18 14:00:56;;;;;;;9.40;5.13;;;;;;;;;;5012349;28;20465;-72
2023/12/18 14:03:21;;;;;;;8.52;5.85;;;;;;;;;;5012205;28;20396;-72
2023/12/18 14:05:46;;;;;;;8.73;6.07;;;;;;;;;;5013457;28;20445;-72
2023/12/18 14:08:12;;;;;;;8.40;5.53;;;;;;;;;;5013676;28;20108;-72
2023/12/18 14:10:37;;;;;;;7.28;5.75;;;;;;;;;;5013597;28;20049;-71
2023/12/18 14:13:03;;;;;;;8.82;6.65;;;;;;;;;;5013803;28;20040;-72
2023/12/18 14:15:28;;;;;;;11.23;7.43;;;;;;;;;;5012592;28;20088;-71
2023/12/18 14:17:53;;;;;;;13.40;7.97;;;;;;;;;;5013804;28;20104;-72
2023/12/18 14:20:19;;;;;;;12.75;7.93;;;;;;;;;;5013902;28;20061;-71
2023/12/18 14:22:44;;;;;;;10.60;7.63;;;;;;;;;;5013839;28;20034;-71
2023/12/18 14:25:09;;;;;;;12.93;7.45;;;;;;;;;;5013995;28;20057;-71
2023/12/18 14:27:35;;;;;;;11.55;7.28;;;;;;;;;;5055862;22;20075;-72
2023/12/18 14:30:00;;;;;;;11.02;7.35;;;;;;;;;;5055630;28;20020;-72
2023/12/18 14:32:26;;;;;;;13.85;8.10;;;;;;;;;;5077202;28;20035;-71